createdAt,value
2023-12-23T00:02:09.550Z,99082.25
2023-12-23T00:04:36.151Z,99106.16
2023-12-23T00:07:02.609Z,99109.94
2023-12-23T00:09:29.008Z,99119.38
2023-12-23T00:11:55.644Z,99141.19
2023-12-23T00:14:22.184Z,99147.72
2023-12-23T00:16:48.663Z,99150.44
2023-12-23T00:19:15.304Z,99158.59
2023-12-23T00:21:41.886Z,99171.84
2023-12-23T00:24:08.547Z,99167.22
2023-12-23T00:26:34.966Z,99177.28
2023-12-23T00:29:01.371Z,99186.28
2023-12-23T00:31:27.774Z,99190.91
2023-12-23T00:33:54.174Z,99196.38
2023-12-23T00:36:20.565Z,99209.97
2023-12-23T00:38:46.924Z,99209.41
2023-12-23T00:41:13.408Z,99226.81
2023-12-23T00:43:39.852Z,99227.00
2023-12-23T00:46:07.520Z,99222.63
2023-12-23T00:48:34.660Z,99237.09
2023-12-23T00:51:01.840Z,99231.63
2023-12-23T00:53:28.295Z,99227.00
2023-12-23T00:55:54.720Z,99230.81
2023-12-23T00:58:21.386Z,99235.63
2023-12-23T01:00:47.827Z,99244.41
2023-12-23T01:03:14.285Z,99249.88
2023-12-23T01:05:40.701Z,99280.66
2023-12-23T01:08:07.252Z,99280.06
2023-12-23T01:10:33.657Z,99276.50
2023-12-23T01:13:00.231Z,99275.44
2023-12-23T01:15:26.608Z,99273.75
2023-12-23T01:17:53.377Z,99290.97
2023-12-23T01:20:20.428Z,99302.69
2023-12-23T01:22:47.056Z,99303.53
2023-12-23T01:25:13.536Z,99319.88
2023-12-23T01:27:39.915Z,99337.03
2023-12-23T01:30:06.807Z,99340.22
2023-12-23T01:32:33.404Z,99358.22
2023-12-23T01:34:59.890Z,99370.16
2023-12-23T01:55:02.696Z,99398.47
2023-12-23T01:57:29.109Z,99403.09
2023-12-23T01:59:55.623Z,99407.09
2023-12-23T02:02:22.225Z,99411.69
2023-12-23T02:04:48.945Z,99404.34
2023-12-23T02:07:15.457Z,99412.53
2023-12-23T02:09:42.144Z,99432.44
2023-12-23T02:12:11.579Z,99422.59
2023-12-23T02:14:51.316Z,99434.94
2023-12-23T02:17:18.054Z,99435.78
2023-12-23T02:19:44.508Z,99444.38
2023-12-23T02:22:10.958Z,99430.75
2023-12-23T02:24:37.331Z,99448.78
2023-12-23T02:27:10.625Z,99433.25
2023-12-23T02:29:38.172Z,99443.13
2023-12-23T02:32:06.339Z,99452.31
2023-12-23T02:34:32.777Z,99456.50
2023-12-23T02:36:59.232Z,99467.19
2023-12-23T02:39:25.730Z,99464.44
2023-12-23T02:41:52.115Z,99469.06
2023-12-23T02:44:18.682Z,99475.34
2023-12-23T02:46:45.151Z,99485.66
2023-12-23T02:49:11.896Z,99485.00
2023-12-23T02:51:38.359Z,99485.88
2023-12-23T02:54:04.945Z,99495.06
2023-12-23T02:56:32.284Z,99491.75
2023-12-23T02:58:58.908Z,99493.84
2023-12-23T03:01:25.330Z,99507.03
2023-12-23T03:03:51.933Z,99505.38
2023-12-23T03:06:18.492Z,99526.09
2023-12-23T03:08:44.944Z,99516.88
2023-12-23T03:11:11.429Z,99537.00
2023-12-23T03:13:37.901Z,99537.66
2023-12-23T03:16:14.515Z,99547.72
2023-12-23T03:18:41.004Z,99540.38
2023-12-23T03:21:07.395Z,99548.31
2023-12-23T03:23:33.841Z,99544.56
2023-12-23T03:26:00.968Z,99550.38
2023-12-23T03:28:27.421Z,99543.91
2023-12-23T03:30:53.909Z,99546.63
2023-12-23T03:33:20.387Z,99548.53
2023-12-23T03:35:46.952Z,99559.63
2023-12-23T03:38:13.406Z,99566.72
2023-12-23T03:40:39.890Z,99568.44
2023-12-23T03:43:06.354Z,99573.03
2023-12-23T03:45:32.975Z,99579.31
2023-12-23T03:47:59.563Z,99576.78
2023-12-23T03:50:26.546Z,99583.31
2023-12-23T03:52:53.360Z,99580.59
2023-12-23T03:55:20.021Z,99570.13
2023-12-23T03:57:46.474Z,99588.97
2023-12-23T04:00:13.123Z,99588.97
2023-12-23T04:02:39.502Z,99587.91
2023-12-23T04:05:06.020Z,99585.44
2023-12-23T04:07:32.777Z,99589.19
2023-12-23T04:09:59.744Z,99585.84
2023-12-23T04:12:26.152Z,99596.13
2023-12-23T04:14:52.504Z,99590.06
2023-12-23T04:17:18.893Z,99594.88
2023-12-23T04:19:45.923Z,99597.59
2023-12-23T04:22:12.298Z,99589.66
2023-12-23T04:24:38.682Z,99598.06
2023-12-23T04:27:05.207Z,99604.75
2023-12-23T04:29:31.659Z,99595.75
2023-12-23T04:31:58.147Z,99603.91
2023-12-23T04:34:24.610Z,99590.53
2023-12-23T04:36:51.114Z,99597.41
2023-12-23T04:39:17.943Z,99592.19
2023-12-23T04:41:48.326Z,99591.38
2023-12-23T04:44:15.370Z,99600.56
2023-12-23T04:46:42.532Z,99596.81
2023-12-23T04:49:09.101Z,99586.94
2023-12-23T04:51:35.640Z,99583.63
2023-12-23T04:54:02.036Z,99589.28
2023-12-23T04:56:28.770Z,99583.22
2023-12-23T04:58:57.382Z,99584.28
2023-12-23T05:01:25.424Z,99580.91
2023-12-23T05:03:51.970Z,99568.34
2023-12-23T05:06:18.486Z,99582.81
2023-12-23T05:08:44.973Z,99576.28
2023-12-23T05:11:11.743Z,99584.91
2023-12-23T05:13:38.421Z,99576.94
2023-12-23T05:16:06.905Z,99571.06
2023-12-23T05:18:33.689Z,99579.03
2023-12-23T05:21:00.155Z,99577.16
2023-12-23T05:23:26.787Z,99571.72
2023-12-23T05:25:54.533Z,99573.56
2023-12-23T05:28:21.325Z,99566.69
2023-12-23T05:30:48.043Z,99569.59
2023-12-23T05:33:14.682Z,99565.84
2023-12-23T05:35:41.115Z,99565.03
2023-12-23T05:38:07.564Z,99562.50
2023-12-23T05:40:33.970Z,99558.72
2023-12-23T05:43:01.067Z,99575.91
2023-12-23T05:45:27.497Z,99552.44
2023-12-23T05:47:54.841Z,99566.28
2023-12-23T05:50:21.411Z,99566.50
2023-12-23T05:52:48.338Z,99577.00
2023-12-23T05:55:14.944Z,99571.53
2023-12-23T05:57:41.435Z,99576.16
2023-12-23T06:00:11.115Z,99574.28
2023-12-23T06:02:38.963Z,99568.59
2023-12-23T06:05:05.607Z,99564.81
2023-12-23T06:07:32.071Z,99571.97
2023-12-23T06:09:58.586Z,99566.50
2023-12-23T06:12:25.157Z,99542.00
2023-12-23T06:14:52.121Z,99548.28
2023-12-23T06:17:18.614Z,99549.94
2023-12-23T06:19:45.041Z,99537.16
2023-12-23T06:22:11.477Z,99545.09
2023-12-23T06:24:37.961Z,99527.75
2023-12-23T06:27:04.479Z,99543.84
2023-12-23T06:29:31.705Z,99538.19
2023-12-23T06:31:58.641Z,99523.72
2023-12-23T06:34:25.044Z,99539.47
2023-12-23T06:36:51.488Z,99533.19
2023-12-23T06:39:17.890Z,99526.91
2023-12-23T06:41:48.049Z,99534.66
2023-12-23T06:44:14.701Z,99522.72
2023-12-23T06:46:41.168Z,99520.22
2023-12-23T06:49:07.700Z,99523.16
2023-12-23T06:51:34.203Z,99510.16
2023-12-23T06:54:00.627Z,99521.06
2023-12-23T06:56:27.083Z,99519.16
2023-12-23T06:58:53.609Z,99520.59
2023-12-23T07:01:20.045Z,99517.06
2023-12-23T07:03:46.462Z,99510.78
2023-12-23T07:06:16.240Z,99523.97
2023-12-23T07:08:43.005Z,99523.13
2023-12-23T07:11:12.371Z,99519.56
2023-12-23T07:13:39.516Z,99490.88
2023-12-23T07:16:06.203Z,99501.81
2023-12-23T07:18:32.884Z,99499.94
2023-12-23T07:21:00.344Z,99507.88
2023-12-23T07:23:26.933Z,99498.44
2023-12-23T07:25:53.493Z,99502.59
2023-12-23T07:28:20.006Z,99500.94
2023-12-23T07:30:46.676Z,99491.72
2023-12-23T07:33:13.593Z,99491.53
2023-12-23T07:35:40.479Z,99498.63
2023-12-23T07:38:07.013Z,99512.44
2023-12-23T07:40:35.601Z,99514.13
2023-12-23T07:43:02.947Z,99496.97
2023-12-23T07:45:29.447Z,99485.00
2023-12-23T07:47:55.884Z,99489.63
2023-12-23T07:50:23.887Z,99491.28
2023-12-23T07:52:50.830Z,99493.78
2023-12-23T07:55:17.366Z,99496.50
2023-12-23T07:57:44.250Z,99494.63
2023-12-23T08:00:10.868Z,99489.16
2023-12-23T08:02:37.218Z,99498.41
2023-12-23T08:05:05.748Z,99499.22
2023-12-23T08:07:35.580Z,99491.06
2023-12-23T08:10:02.137Z,99507.84
2023-12-23T08:12:29.776Z,99489.63
2023-12-23T08:17:31.488Z,99486.44
2023-12-23T08:19:58.257Z,99492.75
2023-12-23T08:22:24.676Z,99496.31
2023-12-23T08:24:51.038Z,99489.16
2023-12-23T08:27:17.400Z,99497.56
2023-12-23T08:29:43.850Z,99497.78
2023-12-23T08:32:10.249Z,99500.28
2023-12-23T08:34:36.640Z,99499.22
2023-12-23T08:37:12.202Z,99504.69
2023-12-23T08:39:38.604Z,99514.97
2023-12-23T08:42:05.128Z,99520.41
2023-12-23T08:44:31.567Z,99533.19
2023-12-23T08:46:58.007Z,99532.72
2023-12-23T08:49:24.609Z,99520.81
2023-12-23T08:51:51.151Z,99533.13
2023-12-23T08:54:17.531Z,99535.66
2023-12-23T08:56:43.921Z,99523.31
2023-12-23T08:59:10.363Z,99545.72
2023-12-23T09:01:36.828Z,99541.09
2023-12-23T09:04:03.296Z,99524.53
2023-12-23T09:06:29.740Z,99541.28
2023-12-23T09:08:58.633Z,99543.78
2023-12-23T09:11:25.261Z,99551.75
2023-12-23T09:13:51.821Z,99556.97
2023-12-23T09:16:18.342Z,99553.41
2023-12-23T09:18:44.903Z,99558.63
2023-12-23T09:21:11.539Z,99561.16
2023-12-23T09:23:38.748Z,99563.06
2023-12-23T09:26:05.343Z,99556.53
2023-12-23T09:28:31.823Z,99555.50
2023-12-23T09:30:58.385Z,99543.75
2023-12-23T09:33:25.006Z,99544.59
2023-12-23T09:35:51.490Z,99551.94
2023-12-23T09:38:17.921Z,99544.81
2023-12-23T09:40:44.424Z,99540.63
2023-12-23T09:43:11.986Z,99535.41
2023-12-23T09:45:39.476Z,99539.41
2023-12-23T09:48:06.139Z,99529.16
2023-12-23T09:50:32.710Z,99539.03
2023-12-23T09:53:00.684Z,99534.63
2023-12-23T09:55:27.750Z,99537.81
2023-12-23T09:57:54.173Z,99528.16
2023-12-23T10:00:20.608Z,99522.13
2023-12-23T10:02:47.047Z,99522.94
2023-12-23T10:05:13.783Z,99530.47
2023-12-23T10:07:40.414Z,99540.53
2023-12-23T10:10:07.222Z,99523.59
2023-12-23T10:12:34.268Z,99525.47
2023-12-23T10:15:00.684Z,99536.75
2023-12-23T10:17:27.319Z,99535.09
2023-12-23T10:19:56.432Z,99539.72
2023-12-23T10:22:22.852Z,99541.19
2023-12-23T10:24:49.316Z,99539.28
2023-12-23T10:27:19.337Z,99536.94
2023-12-23T10:29:49.566Z,99539.66
2023-12-23T10:32:20.111Z,99533.63
2023-12-23T10:34:51.080Z,99542.63
2023-12-23T10:37:18.021Z,99535.50
2023-12-23T10:39:52.320Z,99531.72
2023-12-23T10:42:22.258Z,99535.28
2023-12-23T10:44:49.524Z,99537.41
2023-12-23T10:47:17.018Z,99537.16
2023-12-23T10:49:47.272Z,99528.56
2023-12-23T10:52:14.821Z,99521.00
2023-12-23T10:54:41.181Z,99517.69
2023-12-23T10:57:07.782Z,99504.28
2023-12-23T10:59:34.181Z,99504.28
2023-12-23T11:02:03.887Z,99499.69
2023-12-23T11:04:30.518Z,99500.28
2023-12-23T11:07:00.790Z,99498.41
2023-12-23T11:09:27.888Z,99500.06
2023-12-23T11:11:54.479Z,99503.00
2023-12-23T11:14:20.986Z,99500.28
2023-12-23T11:16:50.273Z,99514.13
2023-12-23T11:19:16.765Z,99524.19
2023-12-23T11:21:43.497Z,99526.47
2023-12-23T11:24:31.547Z,99530.88
2023-12-23T11:26:57.980Z,99542.84
2023-12-23T11:29:24.440Z,99532.56
2023-12-23T11:31:50.878Z,99537.81
2023-12-23T11:34:18.483Z,99535.91
2023-12-23T11:36:45.417Z,99534.22
2023-12-23T11:39:12.294Z,99526.28
2023-12-23T11:41:40.592Z,99527.94
2023-12-23T11:44:07.503Z,99527.94
2023-12-23T11:46:34.608Z,99534.91
2023-12-23T11:49:01.294Z,99529.69
2023-12-23T11:51:27.848Z,99536.06
2023-12-23T11:53:56.032Z,99533.34
2023-12-23T11:56:23.693Z,99538.75
2023-12-23T11:58:50.189Z,99542.06
2023-12-23T12:01:18.364Z,99547.25
2023-12-23T12:03:45.014Z,99555.66
2023-12-23T12:06:11.889Z,99562.56
2023-12-23T12:08:38.362Z,99567.34
2023-12-23T12:11:04.924Z,99571.75
2023-12-23T12:13:31.555Z,99571.53
2023-12-23T12:15:57.997Z,99567.53
2023-12-23T12:18:24.504Z,99565.44
2023-12-23T12:20:50.949Z,99571.50
2023-12-23T12:23:17.482Z,99572.13
2023-12-23T12:25:50.922Z,99564.56
2023-12-23T12:28:17.831Z,99560.81
2023-12-23T12:30:48.468Z,99570.66
2023-12-23T12:33:17.920Z,99574.81
2023-12-23T12:35:44.447Z,99571.06
2023-12-23T12:38:17.056Z,99567.28
2023-12-23T12:40:50.050Z,99564.31
2023-12-23T12:43:16.480Z,99564.97
2023-12-23T12:45:43.277Z,99570.19
2023-12-23T12:48:10.823Z,99570.19
2023-12-23T12:50:40.811Z,99579.00
2023-12-23T12:53:07.423Z,99576.03
2023-12-23T12:55:33.904Z,99591.53
2023-12-23T12:58:00.352Z,99584.22
2023-12-23T13:00:27.706Z,99583.16
2023-12-23T13:02:55.114Z,99589.22
2023-12-23T13:05:22.585Z,99589.00
2023-12-23T13:07:51.120Z,99601.56
2023-12-23T13:10:17.521Z,99602.38
2023-12-23T13:12:43.940Z,99610.38
2023-12-23T13:15:10.424Z,99605.75
2023-12-23T13:17:37.242Z,99611.19
2023-12-23T13:20:04.744Z,99613.09
2023-12-23T13:22:31.236Z,99615.59
2023-12-23T13:24:57.634Z,99619.97
2023-12-23T13:27:24.166Z,99628.16
2023-12-23T13:29:50.589Z,99630.66
2023-12-23T13:32:17.045Z,99624.41
2023-12-23T13:34:45.810Z,99640.50
2023-12-23T13:37:12.358Z,99640.50
2023-12-23T13:39:38.780Z,99642.41
2023-12-23T13:42:05.470Z,99647.63
2023-12-23T13:44:36.231Z,99655.78
2023-12-23T13:47:03.963Z,99657.69
2023-12-23T13:49:30.624Z,99660.22
2023-12-23T13:51:57.111Z,99653.06
2023-12-23T13:54:23.495Z,99663.78
2023-12-23T13:56:51.295Z,99666.50
2023-12-23T13:59:18.095Z,99664.59
2023-12-23T14:01:44.695Z,99672.78
2023-12-23T14:04:11.258Z,99679.88
2023-12-23T14:06:37.748Z,99684.50
2023-12-23T14:09:04.772Z,99696.22
2023-12-23T14:11:31.172Z,99697.91
2023-12-23T14:13:57.659Z,99702.50
2023-12-23T14:16:24.233Z,99703.34
2023-12-23T14:18:50.792Z,99700.63
2023-12-23T14:21:17.254Z,99705.88
2023-12-23T14:23:43.778Z,99710.25
2023-12-23T14:26:10.447Z,99714.88
2023-12-23T14:28:37.122Z,99713.00
2023-12-23T14:31:03.731Z,99708.59
2023-12-23T14:33:32.526Z,99712.34
2023-12-23T14:35:59.621Z,99714.88
2023-12-23T14:38:27.914Z,99723.88
2023-12-23T14:40:54.600Z,99725.78
2023-12-23T14:43:22.432Z,99727.44
2023-12-23T14:45:49.322Z,99731.00
2023-12-23T14:48:15.860Z,99740.84
2023-12-23T14:50:42.337Z,99732.66
2023-12-23T14:53:08.864Z,99739.19
2023-12-23T14:55:38.579Z,99743.78
2023-12-23T14:58:06.467Z,99731.84
2023-12-23T15:00:34.933Z,99733.72
2023-12-23T15:03:01.886Z,99745.47
2023-12-23T15:05:28.398Z,99738.13
2023-12-23T15:07:54.931Z,99750.91
2023-12-23T15:10:21.441Z,99755.31
2023-12-23T15:12:48.129Z,99765.16
2023-12-23T15:15:14.627Z,99768.72
2023-12-23T15:17:41.161Z,99769.56
2023-12-23T15:20:08.016Z,99776.06
2023-12-23T15:22:34.442Z,99775.84
2023-12-23T15:25:00.862Z,99779.63
2023-12-23T15:27:27.594Z,99777.13
2023-12-23T15:29:55.184Z,99780.69
2023-12-23T15:32:21.603Z,99770.63
2023-12-23T15:34:48.122Z,99774.19
2023-12-23T15:37:14.919Z,99788.41
2023-12-23T15:39:41.727Z,99784.00
2023-12-23T15:42:08.125Z,99786.97
2023-12-23T15:44:34.673Z,99795.97
2023-12-23T15:47:01.232Z,99809.59
2023-12-23T15:49:27.990Z,99803.91
2023-12-23T15:51:54.855Z,99814.22
2023-12-23T15:54:21.469Z,99822.38
2023-12-23T15:56:48.479Z,99819.44
2023-12-23T15:59:15.110Z,99823.22
2023-12-23T16:01:42.409Z,99836.63
2023-12-23T16:04:08.816Z,99833.88
2023-12-23T16:06:35.390Z,99842.91
2023-12-23T16:09:01.794Z,99851.06
2023-12-23T16:11:28.296Z,99842.06
2023-12-23T16:13:54.819Z,99846.91
2023-12-23T16:16:21.325Z,99833.28
2023-12-23T16:18:47.931Z,99825.09
2023-12-23T16:21:14.476Z,99831.16
2023-12-23T16:23:41.082Z,99820.28
2023-12-23T16:26:17.675Z,99830.34
2023-12-23T16:28:46.003Z,99842.50
2023-12-23T16:31:15.527Z,99846.25
2023-12-23T16:33:42.300Z,99848.78
2023-12-23T16:36:11.555Z,99851.53
2023-12-23T16:38:38.008Z,99850.69
2023-12-23T16:41:04.934Z,99847.75
2023-12-23T16:43:31.427Z,99857.59
2023-12-23T16:45:57.835Z,99852.34
2023-12-23T16:48:24.378Z,99852.34
2023-12-23T16:50:51.670Z,99846.91
2023-12-23T16:53:18.167Z,99863.88
2023-12-23T16:55:44.577Z,99869.53
2023-12-23T16:58:10.999Z,99872.03
2023-12-23T17:00:37.593Z,99872.88
2023-12-23T17:03:04.059Z,99878.31
2023-12-23T17:05:31.856Z,99876.66
2023-12-23T17:07:58.322Z,99884.81
2023-12-23T17:10:26.177Z,99885.66
2023-12-23T17:12:53.008Z,99884.59
2023-12-23T17:15:19.659Z,99881.88
2023-12-23T17:17:46.278Z,99881.03
2023-12-23T17:20:13.917Z,99881.88
2023-12-23T17:22:40.631Z,99880.84
2023-12-23T17:25:07.224Z,99885.47
2023-12-23T17:27:33.630Z,99885.47
2023-12-23T17:30:01.357Z,99889.03
2023-12-23T17:32:28.060Z,99888.19
2023-12-23T17:34:54.750Z,99890.06
2023-12-23T17:37:21.196Z,99893.84
2023-12-23T17:39:47.597Z,99891.94
2023-12-23T17:42:14.255Z,99902.84
2023-12-23T17:44:40.721Z,99896.38
2023-12-23T17:47:07.199Z,99891.75
2023-12-23T17:49:33.653Z,99894.47
2023-12-23T17:52:00.087Z,99883.78
2023-12-23T17:54:27.620Z,99893.84
2023-12-23T17:56:54.141Z,99899.28
2023-12-23T17:59:20.717Z,99896.38
2023-12-23T18:01:47.222Z,99897.41
2023-12-23T18:04:13.711Z,99893.00
2023-12-23T18:06:40.177Z,99890.28
2023-12-23T18:09:06.659Z,99889.22
2023-12-23T18:11:33.086Z,99898.22
2023-12-23T18:13:59.756Z,99893.84
2023-12-23T18:16:26.282Z,99901.81
2023-12-23T18:18:52.802Z,99902.84
2023-12-23T18:21:19.306Z,99911.84
2023-12-23T18:23:45.699Z,99904.72
2023-12-23T18:26:12.180Z,99903.69
2023-12-23T18:28:38.630Z,99916.47
2023-12-23T18:31:05.466Z,99906.84
2023-12-23T18:33:31.938Z,99924.03
2023-12-23T18:35:58.484Z,99910.63
2023-12-23T18:38:24.979Z,99933.88
2023-12-23T18:40:51.594Z,99941.00
2023-12-23T18:43:18.067Z,99945.81
2023-12-23T18:45:44.436Z,99955.91
2023-12-23T18:48:11.746Z,99952.94
2023-12-23T18:50:38.279Z,99955.91
2023-12-23T18:53:05.022Z,99955.66
2023-12-23T18:55:33.650Z,99955.66
2023-12-23T18:58:00.072Z,99950.22
2023-12-23T19:00:26.479Z,99956.72
2023-12-23T19:02:53.023Z,99952.94
2023-12-23T19:05:19.898Z,99956.72
2023-12-23T19:07:46.358Z,99954.00
2023-12-23T19:10:12.768Z,99964.69
2023-12-23T19:12:39.190Z,99961.13
2023-12-23T19:15:05.769Z,99961.97
2023-12-23T19:17:32.399Z,99958.19
2023-12-23T19:20:01.101Z,99972.84
2023-12-23T19:22:27.605Z,99968.47
2023-12-23T19:24:54.014Z,99970.34
2023-12-23T19:27:20.390Z,99977.69
2023-12-23T19:29:46.810Z,99983.97
2023-12-23T19:32:14.504Z,99991.09
2023-12-23T19:34:42.867Z,99986.47
2023-12-23T19:37:09.321Z,99992.16
2023-12-23T19:39:36.248Z,99991.94
2023-12-23T19:42:04.643Z,99991.09
2023-12-23T19:44:31.146Z,99991.94
2023-12-23T19:46:57.856Z,99993.81
2023-12-23T19:49:24.416Z,99999.28
2023-12-23T19:51:50.815Z,100004.72
2023-12-23T19:54:17.183Z,100008.50
2023-12-23T19:56:43.648Z,100013.94
2023-12-23T19:59:11.357Z,100030.28
2023-12-23T20:01:37.887Z,100034.69
2023-12-23T20:04:04.460Z,100024.00
2023-12-23T20:06:31.028Z,100029.47
2023-12-23T20:08:58.052Z,100027.78
2023-12-23T20:11:25.305Z,100023.19
2023-12-23T20:13:52.087Z,100024.00
2023-12-23T20:16:28.500Z,100017.72
2023-12-23T20:18:55.357Z,100005.13
2023-12-23T20:21:22.273Z,100012.28
2023-12-23T20:23:48.792Z,100008.72
2023-12-23T20:26:15.279Z,100010.16
2023-12-23T20:28:41.701Z,100014.16
2023-12-23T20:31:08.126Z,100008.72
2023-12-23T20:33:34.604Z,100016.66
2023-12-23T20:36:01.856Z,100018.56
2023-12-23T20:40:55.796Z,100022.13
2023-12-23T20:43:22.191Z,100018.56
2023-12-23T20:45:49.302Z,100021.28
2023-12-23T20:48:15.884Z,100012.28
2023-12-23T20:50:42.266Z,100017.50
2023-12-23T20:53:08.638Z,100018.56
2023-12-23T20:55:35.020Z,100015.84
2023-12-23T20:58:02.034Z,100013.09
2023-12-23T21:00:29.956Z,100019.63
2023-12-23T21:02:56.416Z,100023.19
2023-12-23T21:05:23.214Z,100022.34
2023-12-23T21:07:49.874Z,100023.19
2023-12-23T21:10:17.622Z,100012.28
2023-12-23T21:12:44.615Z,100016.03
2023-12-23T21:15:11.181Z,100024.19
2023-12-23T21:17:37.891Z,100020.63
2023-12-23T21:20:04.675Z,100013.94
2023-12-23T21:22:31.144Z,100012.28
2023-12-23T21:24:57.530Z,100015.00
2023-12-23T21:27:23.933Z,100016.03
2023-12-23T21:29:50.353Z,100015.19
2023-12-23T21:32:16.891Z,100011.44
2023-12-23T21:34:43.745Z,100019.63
2023-12-23T21:37:10.385Z,100009.56
2023-12-23T21:39:37.187Z,100012.28
2023-12-23T21:42:04.356Z,100006.00
2023-12-23T21:44:30.856Z,100010.56
2023-12-23T21:46:57.302Z,100010.56
2023-12-23T21:49:23.846Z,100006.00
2023-12-23T21:51:50.435Z,100011.44
2023-12-23T21:54:17.249Z,100016.03
2023-12-23T21:56:43.851Z,99999.69
2023-12-23T21:59:10.394Z,100014.16
2023-12-23T22:01:36.821Z,100010.56
2023-12-23T22:04:03.780Z,100015.19
2023-12-23T22:06:30.438Z,100007.00
2023-12-23T22:08:58.055Z,100008.50
2023-12-23T22:11:24.484Z,100007.66
2023-12-23T22:13:51.020Z,100002.22
2023-12-23T22:16:17.383Z,100005.78
2023-12-23T22:18:43.975Z,100011.22
2023-12-23T22:21:13.682Z,100012.28
2023-12-23T22:23:40.672Z,100010.56
2023-12-23T22:26:10.299Z,100012.28
2023-12-23T22:28:37.154Z,100023.19
2023-12-23T22:31:03.819Z,100026.75
2023-12-23T22:33:30.269Z,100022.34
2023-12-23T22:35:56.755Z,100027.78
2023-12-23T22:38:23.179Z,100015.00
2023-12-23T22:40:49.654Z,100024.00
2023-12-23T22:43:16.448Z,100019.19
2023-12-23T22:45:42.869Z,100020.44
2023-12-23T22:48:09.905Z,100024.00
2023-12-23T22:50:36.482Z,100026.50
2023-12-23T22:53:03.092Z,100023.78
2023-12-23T22:55:29.505Z,100025.69
2023-12-23T22:57:56.218Z,100025.47
2023-12-23T23:00:25.258Z,100019.41
2023-12-23T23:02:52.525Z,100026.75
2023-12-23T23:05:19.250Z,100028.63
2023-12-23T23:07:45.720Z,100029.47
2023-12-23T23:10:12.175Z,100037.63
2023-12-23T23:12:38.575Z,100042.25
2023-12-23T23:15:05.655Z,100044.13
2023-12-23T23:17:32.242Z,100045.81
2023-12-23T23:19:58.800Z,100039.53
2023-12-23T23:22:26.816Z,100049.78
2023-12-23T23:24:53.344Z,100040.97
2023-12-23T23:27:19.835Z,100042.66
2023-12-23T23:29:46.363Z,100047.91
2023-12-23T23:32:12.801Z,100046.03
2023-12-23T23:34:39.529Z,100035.97
2023-12-23T23:37:05.920Z,100036.41
2023-12-23T23:39:33.721Z,100045.41
2023-12-23T23:42:01.315Z,100050.66
2023-12-23T23:44:27.739Z,100046.50
2023-12-23T23:46:54.131Z,100046.91
2023-12-23T23:49:20.960Z,100044.81
2023-12-23T23:51:48.209Z,100048.59
2023-12-23T23:54:14.763Z,100055.06
2023-12-23T23:56:41.278Z,100050.63
2023-12-23T23:59:08.376Z,100058.59
